sensor_id;sensor_type;location;lat;lon;timestamp;temperature;humidity
21744;DHT22;11034;48.556;9.342;2022-12-10T00:01:37;0.10;99.90
21744;DHT22;11034;48.556;9.342;2022-12-10T00:04:05;0.10;99.90
21744;DHT22;11034;48.556;9.342;2022-12-10T00:06:35;0.10;99.90
21744;DHT22;11034;48.556;9.342;2022-12-10T00:09:06;0.10;99.90
21744;DHT22;11034;48.556;9.342;2022-12-10T00:11:35;0.10;99.90
21744;DHT22;11034;48.556;9.342;2022-12-10T00:14:03;0.10;99.90
21744;DHT22;11034;48.556;9.342;2022-12-10T00:16:31;0.20;99.90
21744;DHT22;11034;48.556;9.342;2022-12-10T00:19:01;0.20;99.90
21744;DHT22;11034;48.556;9.342;2022-12-10T00:21:31;0.10;99.90
21744;DHT22;11034;48.556;9.342;2022-12-10T00:24:01;0.10;99.90
21744;DHT22;11034;48.556;9.342;2022-12-10T00:26:30;0.10;99.90
21744;DHT22;11034;48.556;9.342;2022-12-10T00:29:00;0.10;99.90
21744;DHT22;11034;48.556;9.342;2022-12-10T00:31:30;0.10;99.90
21744;DHT22;11034;48.556;9.342;2022-12-10T00:34:01;0.10;99.90
21744;DHT22;11034;48.556;9.342;2022-12-10T00:36:31;0.00;99.90
21744;DHT22;11034;48.556;9.342;2022-12-10T00:39:00;0.10;99.90
21744;DHT22;11034;48.556;9.342;2022-12-10T00:41:29;0.10;99.90
21744;DHT22;11034;48.556;9.342;2022-12-10T00:43:57;0.10;99.90
21744;DHT22;11034;48.556;9.342;2022-12-10T00:46:25;0.10;99.90
21744;DHT22;11034;48.556;9.342;2022-12-10T00:48:53;0.10;99.90
21744;DHT22;11034;48.556;9.342;2022-12-10T00:51:24;0.10;99.90
21744;DHT22;11034;48.556;9.342;2022-12-10T00:53:54;0.20;99.90
21744;DHT22;11034;48.556;9.342;2022-12-10T00:56:24;0.10;99.90
21744;DHT22;11034;48.556;9.342;2022-12-10T00:58:52;0.20;99.90
21744;DHT22;11034;48.556;9.342;2022-12-10T01:01:22;0.20;99.90
21744;DHT22;11034;48.556;9.342;2022-12-10T01:03:56;0.20;99.90
21744;DHT22;11034;48.556;9.342;2022-12-10T01:06:28;0.10;99.90
21744;DHT22;11034;48.556;9.342;2022-12-10T01:08:59;0.10;99.90
21744;DHT22;11034;48.556;9.342;2022-12-10T01:11:30;0.20;99.90
21744;DHT22;11034;48.556;9.342;2022-12-10T01:13:58;0.20;99.90
21744;DHT22;11034;48.556;9.342;2022-12-10T01:16:27;0.20;99.90
21744;DHT22;11034;48.556;9.342;2022-12-10T01:18:56;0.20;99.90
21744;DHT22;11034;48.556;9.342;2022-12-10T01:21:27;0.20;99.90
21744;DHT22;11034;48.556;9.342;2022-12-10T01:23:56;0.30;99.90
21744;DHT22;11034;48.556;9.342;2022-12-10T01:26:26;0.30;99.90
21744;DHT22;11034;48.556;9.342;2022-12-10T01:28:56;0.30;99.90
21744;DHT22;11034;48.556;9.342;2022-12-10T01:31:26;0.30;99.90
21744;DHT22;11034;48.556;9.342;2022-12-10T01:33:55;0.30;99.90
21744;DHT22;11034;48.556;9.342;2022-12-10T01:36:26;0.30;99.90
21744;DHT22;11034;48.556;9.342;2022-12-10T01:38:55;0.30;99.90
21744;DHT22;11034;48.556;9.342;2022-12-10T01:41:24;0.40;99.90
21744;DHT22;11034;48.556;9.342;2022-12-10T01:43:58;0.30;99.90
21744;DHT22;11034;48.556;9.342;2022-12-10T01:46:28;0.30;99.90
21744;DHT22;11034;48.556;9.342;2022-12-10T01:48:58;0.30;99.90
21744;DHT22;11034;48.556;9.342;2022-12-10T01:51:31;0.30;99.90
21744;DHT22;11034;48.556;9.342;2022-12-10T01:53:59;0.30;99.90
21744;DHT22;11034;48.556;9.342;2022-12-10T01:56:28;0.30;99.90
21744;DHT22;11034;48.556;9.342;2022-12-10T01:58:56;0.30;99.90
21744;DHT22;11034;48.556;9.342;2022-12-10T02:01:29;0.30;99.90
21744;DHT22;11034;48.556;9.342;2022-12-10T02:04:08;0.30;99.90
21744;DHT22;11034;48.556;9.342;2022-12-10T02:06:45;0.30;99.90
21744;DHT22;11034;48.556;9.342;2022-12-10T02:09:20;0.30;99.90
21744;DHT22;11034;48.556;9.342;2022-12-10T02:11:58;0.20;99.90
21744;DHT22;11034;48.556;9.342;2022-12-10T02:14:31;0.20;99.90
21744;DHT22;11034;48.556;9.342;2022-12-10T02:17:06;0.20;99.90
21744;DHT22;11034;48.556;9.342;2022-12-10T02:19:57;0.20;99.90
21744;DHT22;11034;48.556;9.342;2022-12-10T02:22:31;0.20;99.90
21744;DHT22;11034;48.556;9.342;2022-12-10T02:25:02;0.20;99.90
21744;DHT22;11034;48.556;9.342;2022-12-10T02:27:37;0.20;99.90
21744;DHT22;11034;48.556;9.342;2022-12-10T02:30:10;0.20;99.90
21744;DHT22;11034;48.556;9.342;2022-12-10T02:32:40;0.20;99.90
21744;DHT22;11034;48.556;9.342;2022-12-10T02:35:12;0.20;99.90
21744;DHT22;11034;48.556;9.342;2022-12-10T02:37:47;0.20;99.90
21744;DHT22;11034;48.556;9.342;2022-12-10T02:40:19;0.20;99.90
21744;DHT22;11034;48.556;9.342;2022-12-10T02:42:49;0.20;99.90
21744;DHT22;11034;48.556;9.342;2022-12-10T02:45:21;0.20;99.90
21744;DHT22;11034;48.556;9.342;2022-12-10T02:47:51;0.10;99.90
21744;DHT22;11034;48.556;9.342;2022-12-10T02:50:21;0.20;99.90
21744;DHT22;11034;48.556;9.342;2022-12-10T02:52:50;0.20;99.90
21744;DHT22;11034;48.556;9.342;2022-12-10T02:55:19;0.20;99.90
21744;DHT22;11034;48.556;9.342;2022-12-10T02:58:03;0.10;99.90
21744;DHT22;11034;48.556;9.342;2022-12-10T03:00:40;0.20;99.90
21744;DHT22;11034;48.556;9.342;2022-12-10T03:03:25;0.20;99.90
21744;DHT22;11034;48.556;9.342;2022-12-10T03:05:59;0.20;99.90
21744;DHT22;11034;48.556;9.342;2022-12-10T03:08:36;0.10;99.90
21744;DHT22;11034;48.556;9.342;2022-12-10T03:11:10;0.10;99.90
21744;DHT22;11034;48.556;9.342;2022-12-10T03:13:41;0.20;99.90
21744;DHT22;11034;48.556;9.342;2022-12-10T03:16:12;0.20;99.90
21744;DHT22;11034;48.556;9.342;2022-12-10T03:18:42;0.10;99.90
21744;DHT22;11034;48.556;9.342;2022-12-10T03:21:13;0.10;99.90
21744;DHT22;11034;48.556;9.342;2022-12-10T03:23:46;0.20;99.90
21744;DHT22;11034;48.556;9.342;2022-12-10T03:26:16;0.20;99.90
21744;DHT22;11034;48.556;9.342;2022-12-10T03:28:47;0.10;99.90
21744;DHT22;11034;48.556;9.342;2022-12-10T03:31:18;0.20;99.90
21744;DHT22;11034;48.556;9.342;2022-12-10T03:33:47;0.10;99.90
21744;DHT22;11034;48.556;9.342;2022-12-10T03:36:17;0.10;99.90
21744;DHT22;11034;48.556;9.342;2022-12-10T03:38:45;0.10;99.90
21744;DHT22;11034;48.556;9.342;2022-12-10T03:41:13;0.10;99.90
21744;DHT22;11034;48.556;9.342;2022-12-10T03:43:52;0.10;99.90
21744;DHT22;11034;48.556;9.342;2022-12-10T03:46:22;0.20;99.90
21744;DHT22;11034;48.556;9.342;2022-12-10T03:48:51;0.10;99.90
21744;DHT22;11034;48.556;9.342;2022-12-10T03:51:19;0.10;99.90
21744;DHT22;11034;48.556;9.342;2022-12-10T03:53:47;0.10;99.90
21744;DHT22;11034;48.556;9.342;2022-12-10T03:56:17;0.10;99.90
21744;DHT22;11034;48.556;9.342;2022-12-10T03:58:47;0.10;99.90
21744;DHT22;11034;48.556;9.342;2022-12-10T04:01:16;0.10;99.90
21744;DHT22;11034;48.556;9.342;2022-12-10T04:03:46;0.10;99.90
21744;DHT22;11034;48.556;9.342;2022-12-10T04:06:15;0.10;99.90
21744;DHT22;11034;48.556;9.342;2022-12-10T04:08:44;0.20;99.90
21744;DHT22;11034;48.556;9.342;2022-12-10T04:11:13;0.20;99.90
21744;DHT22;11034;48.556;9.342;2022-12-10T04:13:42;0.20;99.90
21744;DHT22;11034;48.556;9.342;2022-12-10T04:16:29;0.10;99.90
21744;DHT22;11034;48.556;9.342;2022-12-10T04:19:00;0.20;99.90
21744;DHT22;11034;48.556;9.342;2022-12-10T04:21:30;0.20;99.90
21744;DHT22;11034;48.556;9.342;2022-12-10T04:24:19;0.20;99.90
21744;DHT22;11034;48.556;9.342;2022-12-10T04:27:07;0.20;99.90
21744;DHT22;11034;48.556;9.342;2022-12-10T04:29:35;0.20;99.90
21744;DHT22;11034;48.556;9.342;2022-12-10T04:32:04;0.20;99.90
21744;DHT22;11034;48.556;9.342;2022-12-10T04:34:33;0.20;99.90
21744;DHT22;11034;48.556;9.342;2022-12-10T04:37:02;0.30;99.90
21744;DHT22;11034;48.556;9.342;2022-12-10T04:39:31;0.30;99.90
21744;DHT22;11034;48.556;9.342;2022-12-10T04:41:59;0.30;99.90
21744;DHT22;11034;48.556;9.342;2022-12-10T04:44:27;0.30;99.90
21744;DHT22;11034;48.556;9.342;2022-12-10T04:46:55;0.30;99.90
21744;DHT22;11034;48.556;9.342;2022-12-10T04:49:24;0.20;99.90
21744;DHT22;11034;48.556;9.342;2022-12-10T04:51:53;0.20;99.90
21744;DHT22;11034;48.556;9.342;2022-12-10T04:54:22;0.20;99.90
21744;DHT22;11034;48.556;9.342;2022-12-10T04:56:50;0.20;99.90
21744;DHT22;11034;48.556;9.342;2022-12-10T04:59:18;0.10;99.90
21744;DHT22;11034;48.556;9.342;2022-12-10T05:01:46;0.10;99.90
21744;DHT22;11034;48.556;9.342;2022-12-10T05:04:15;0.10;99.90
21744;DHT22;11034;48.556;9.342;2022-12-10T05:06:44;0.10;99.90
21744;DHT22;11034;48.556;9.342;2022-12-10T05:09:13;0.10;99.90
21744;DHT22;11034;48.556;9.342;2022-12-10T05:11:42;0.10;99.90
21744;DHT22;11034;48.556;9.342;2022-12-10T05:14:11;0.10;99.90
21744;DHT22;11034;48.556;9.342;2022-12-10T05:16:39;0.10;99.90
21744;DHT22;11034;48.556;9.342;2022-12-10T05:19:09;0.10;99.90
21744;DHT22;11034;48.556;9.342;2022-12-10T05:21:37;0.10;99.90
21744;DHT22;11034;48.556;9.342;2022-12-10T05:24:24;0.10;99.90
21744;DHT22;11034;48.556;9.342;2022-12-10T05:26:52;0.10;99.90
21744;DHT22;11034;48.556;9.342;2022-12-10T05:29:20;0.10;99.90
21744;DHT22;11034;48.556;9.342;2022-12-10T05:31:48;0.10;99.90
21744;DHT22;11034;48.556;9.342;2022-12-10T05:34:16;0.10;99.90
21744;DHT22;11034;48.556;9.342;2022-12-10T05:36:44;0.10;99.90
21744;DHT22;11034;48.556;9.342;2022-12-10T05:39:12;0.10;99.90
21744;DHT22;11034;48.556;9.342;2022-12-10T05:41:42;0.10;99.90
21744;DHT22;11034;48.556;9.342;2022-12-10T05:44:10;0.10;99.90
21744;DHT22;11034;48.556;9.342;2022-12-10T05:46:38;0.10;99.90
21744;DHT22;11034;48.556;9.342;2022-12-10T05:49:07;0.10;99.90
21744;DHT22;11034;48.556;9.342;2022-12-10T05:51:36;0.10;99.90
21744;DHT22;11034;48.556;9.342;2022-12-10T05:54:06;0.10;99.90
21744;DHT22;11034;48.556;9.342;2022-12-10T05:56:36;0.10;99.90
21744;DHT22;11034;48.556;9.342;2022-12-10T05:59:06;0.10;99.90
21744;DHT22;11034;48.556;9.342;2022-12-10T06:01:42;0.10;99.90
21744;DHT22;11034;48.556;9.342;2022-12-10T06:04:10;0.10;99.90
21744;DHT22;11034;48.556;9.342;2022-12-10T06:06:39;0.10;99.90
21744;DHT22;11034;48.556;9.342;2022-12-10T06:09:11;0.00;99.90
21744;DHT22;11034;48.556;9.342;2022-12-10T06:11:40;0.00;99.90
21744;DHT22;11034;48.556;9.342;2022-12-10T06:14:10;0.10;99.90
21744;DHT22;11034;48.556;9.342;2022-12-10T06:16:39;0.10;99.90
21744;DHT22;11034;48.556;9.342;2022-12-10T06:19:08;0.10;99.90
21744;DHT22;11034;48.556;9.342;2022-12-10T06:21:36;0.20;99.90
21744;DHT22;11034;48.556;9.342;2022-12-10T06:24:05;0.20;99.90
21744;DHT22;11034;48.556;9.342;2022-12-10T06:26:33;0.10;99.90
21744;DHT22;11034;48.556;9.342;2022-12-10T06:29:01;0.10;99.90
21744;DHT22;11034;48.556;9.342;2022-12-10T06:31:32;0.10;99.90
21744;DHT22;11034;48.556;9.342;2022-12-10T06:34:01;0.20;99.90
21744;DHT22;11034;48.556;9.342;2022-12-10T06:36:29;0.20;99.90
21744;DHT22;11034;48.556;9.342;2022-12-10T06:38:57;0.20;99.90
21744;DHT22;11034;48.556;9.342;2022-12-10T06:41:25;0.20;99.90
21744;DHT22;11034;48.556;9.342;2022-12-10T06:43:53;0.20;99.90
21744;DHT22;11034;48.556;9.342;2022-12-10T06:46:25;0.20;99.90
21744;DHT22;11034;48.556;9.342;2022-12-10T06:48:55;0.20;99.90
21744;DHT22;11034;48.556;9.342;2022-12-10T06:51:23;0.10;99.90
21744;DHT22;11034;48.556;9.342;2022-12-10T06:53:51;0.10;99.90
21744;DHT22;11034;48.556;9.342;2022-12-10T06:56:19;0.10;99.90
21744;DHT22;11034;48.556;9.342;2022-12-10T06:58:48;0.10;99.90
21744;DHT22;11034;48.556;9.342;2022-12-10T07:01:17;0.00;99.90
21744;DHT22;11034;48.556;9.342;2022-12-10T07:03:47;0.00;99.90
21744;DHT22;11034;48.556;9.342;2022-12-10T07:06:17;0.00;99.90
21744;DHT22;11034;48.556;9.342;2022-12-10T07:08:46;0.00;99.90
21744;DHT22;11034;48.556;9.342;2022-12-10T07:11:16;0.00;99.90
21744;DHT22;11034;48.556;9.342;2022-12-10T07:13:45;0.00;99.90
21744;DHT22;11034;48.556;9.342;2022-12-10T07:16:14;0.00;99.90
21744;DHT22;11034;48.556;9.342;2022-12-10T07:18:43;-0.10;99.90
21744;DHT22;11034;48.556;9.342;2022-12-10T07:21:21;0.00;99.90
21744;DHT22;11034;48.556;9.342;2022-12-10T07:23:49;0.00;99.90
21744;DHT22;11034;48.556;9.342;2022-12-10T07:26:17;0.00;99.90
21744;DHT22;11034;48.556;9.342;2022-12-10T07:28:45;0.00;99.90
21744;DHT22;11034;48.556;9.342;2022-12-10T07:31:20;0.00;99.90
21744;DHT22;11034;48.556;9.342;2022-12-10T07:33:48;0.00;99.90
21744;DHT22;11034;48.556;9.342;2022-12-10T07:36:16;0.00;99.90
21744;DHT22;11034;48.556;9.342;2022-12-10T07:38:46;0.00;99.90
21744;DHT22;11034;48.556;9.342;2022-12-10T07:41:15;0.10;99.90
21744;DHT22;11034;48.556;9.342;2022-12-10T07:43:43;0.00;99.90
21744;DHT22;11034;48.556;9.342;2022-12-10T07:46:14;0.00;99.90
21744;DHT22;11034;48.556;9.342;2022-12-10T07:48:44;0.00;99.90
21744;DHT22;11034;48.556;9.342;2022-12-10T07:51:13;0.00;99.90
21744;DHT22;11034;48.556;9.342;2022-12-10T07:53:43;0.00;99.90
21744;DHT22;11034;48.556;9.342;2022-12-10T07:56:12;0.10;99.90
21744;DHT22;11034;48.556;9.342;2022-12-10T07:58:41;0.10;99.90
21744;DHT22;11034;48.556;9.342;2022-12-10T08:01:11;0.10;99.90
21744;DHT22;11034;48.556;9.342;2022-12-10T08:03:40;0.10;99.90
21744;DHT22;11034;48.556;9.342;2022-12-10T08:06:10;0.10;99.90
21744;DHT22;11034;48.556;9.342;2022-12-10T08:08:40;0.10;99.90
21744;DHT22;11034;48.556;9.342;2022-12-10T08:11:09;0.20;99.90
21744;DHT22;11034;48.556;9.342;2022-12-10T08:13:39;0.10;99.90
21744;DHT22;11034;48.556;9.342;2022-12-10T08:16:10;0.20;99.90
21744;DHT22;11034;48.556;9.342;2022-12-10T08:18:39;0.10;99.90
21744;DHT22;11034;48.556;9.342;2022-12-10T08:21:09;0.20;99.90
21744;DHT22;11034;48.556;9.342;2022-12-10T08:23:37;0.30;99.90
21744;DHT22;11034;48.556;9.342;2022-12-10T08:26:06;0.30;99.90
21744;DHT22;11034;48.556;9.342;2022-12-10T08:28:35;0.30;99.90
21744;DHT22;11034;48.556;9.342;2022-12-10T08:31:07;0.30;99.90
21744;DHT22;11034;48.556;9.342;2022-12-10T08:33:36;0.30;99.90
21744;DHT22;11034;48.556;9.342;2022-12-10T08:36:06;0.30;99.90
21744;DHT22;11034;48.556;9.342;2022-12-10T08:38:34;0.30;99.90
21744;DHT22;11034;48.556;9.342;2022-12-10T08:41:06;0.30;99.90
21744;DHT22;11034;48.556;9.342;2022-12-10T08:43:34;0.40;99.90
21744;DHT22;11034;48.556;9.342;2022-12-10T08:46:02;0.30;99.90
21744;DHT22;11034;48.556;9.342;2022-12-10T08:48:33;0.30;99.90
21744;DHT22;11034;48.556;9.342;2022-12-10T08:51:01;0.40;99.90
21744;DHT22;11034;48.556;9.342;2022-12-10T08:53:30;0.50;99.90
21744;DHT22;11034;48.556;9.342;2022-12-10T08:55:58;0.40;99.90
21744;DHT22;11034;48.556;9.342;2022-12-10T08:58:26;0.40;99.90
21744;DHT22;11034;48.556;9.342;2022-12-10T09:00:54;0.50;99.90
21744;DHT22;11034;48.556;9.342;2022-12-10T09:03:23;0.50;99.90
21744;DHT22;11034;48.556;9.342;2022-12-10T09:05:52;0.70;99.90
21744;DHT22;11034;48.556;9.342;2022-12-10T09:08:20;0.70;99.90
21744;DHT22;11034;48.556;9.342;2022-12-10T09:10:48;0.70;99.90
21744;DHT22;11034;48.556;9.342;2022-12-10T09:13:17;1.00;99.90
21744;DHT22;11034;48.556;9.342;2022-12-10T09:15:50;1.00;99.90
21744;DHT22;11034;48.556;9.342;2022-12-10T09:18:20;0.80;99.90
21744;DHT22;11034;48.556;9.342;2022-12-10T09:20:47;0.70;99.90
21744;DHT22;11034;48.556;9.342;2022-12-10T09:23:17;0.60;99.90
21744;DHT22;11034;48.556;9.342;2022-12-10T09:25:45;0.60;99.90
21744;DHT22;11034;48.556;9.342;2022-12-10T09:28:13;0.60;99.90
21744;DHT22;11034;48.556;9.342;2022-12-10T09:30:41;0.60;99.90
21744;DHT22;11034;48.556;9.342;2022-12-10T09:33:09;0.80;99.90
21744;DHT22;11034;48.556;9.342;2022-12-10T09:35:40;0.80;99.90
21744;DHT22;11034;48.556;9.342;2022-12-10T09:38:09;0.80;99.90
21744;DHT22;11034;48.556;9.342;2022-12-10T09:40:41;0.80;99.90
21744;DHT22;11034;48.556;9.342;2022-12-10T09:43:16;0.80;99.90
21744;DHT22;11034;48.556;9.342;2022-12-10T09:45:57;0.90;99.90
21744;DHT22;11034;48.556;9.342;2022-12-10T09:48:31;1.00;99.90
21744;DHT22;11034;48.556;9.342;2022-12-10T09:51:05;0.90;99.90
21744;DHT22;11034;48.556;9.342;2022-12-10T09:53:36;0.90;99.90
21744;DHT22;11034;48.556;9.342;2022-12-10T09:56:18;0.90;99.90
21744;DHT22;11034;48.556;9.342;2022-12-10T09:58:48;0.90;99.90
21744;DHT22;11034;48.556;9.342;2022-12-10T10:01:19;0.90;99.90
21744;DHT22;11034;48.556;9.342;2022-12-10T10:03:48;1.00;99.90
21744;DHT22;11034;48.556;9.342;2022-12-10T10:06:16;0.90;99.90
21744;DHT22;11034;48.556;9.342;2022-12-10T10:08:50;0.90;99.90
21744;DHT22;11034;48.556;9.342;2022-12-10T10:11:23;1.00;99.90
21744;DHT22;11034;48.556;9.342;2022-12-10T10:13:55;0.90;99.90
21744;DHT22;11034;48.556;9.342;2022-12-10T10:16:26;1.00;99.90
21744;DHT22;11034;48.556;9.342;2022-12-10T10:18:58;0.90;99.90
21744;DHT22;11034;48.556;9.342;2022-12-10T10:21:31;0.80;99.90
21744;DHT22;11034;48.556;9.342;2022-12-10T10:24:02;0.80;99.90
21744;DHT22;11034;48.556;9.342;2022-12-10T10:26:39;0.80;99.90
21744;DHT22;11034;48.556;9.342;2022-12-10T10:29:09;1.00;99.90
21744;DHT22;11034;48.556;9.342;2022-12-10T10:31:41;1.20;99.90
21744;DHT22;11034;48.556;9.342;2022-12-10T10:34:15;1.20;99.90
21744;DHT22;11034;48.556;9.342;2022-12-10T10:36:44;1.10;99.90
21744;DHT22;11034;48.556;9.342;2022-12-10T10:39:23;1.00;99.90
21744;DHT22;11034;48.556;9.342;2022-12-10T10:41:56;1.00;99.90
21744;DHT22;11034;48.556;9.342;2022-12-10T10:44:27;1.10;99.90
21744;DHT22;11034;48.556;9.342;2022-12-10T10:46:55;1.20;99.90
21744;DHT22;11034;48.556;9.342;2022-12-10T10:49:25;1.30;99.90
21744;DHT22;11034;48.556;9.342;2022-12-10T10:51:58;1.30;99.90
21744;DHT22;11034;48.556;9.342;2022-12-10T10:54:34;1.30;99.90
21744;DHT22;11034;48.556;9.342;2022-12-10T10:57:12;1.20;99.90
21744;DHT22;11034;48.556;9.342;2022-12-10T10:59:42;1.30;99.90
21744;DHT22;11034;48.556;9.342;2022-12-10T11:02:20;1.30;99.90
21744;DHT22;11034;48.556;9.342;2022-12-10T11:04:52;1.30;99.90
21744;DHT22;11034;48.556;9.342;2022-12-10T11:07:24;1.30;99.90
21744;DHT22;11034;48.556;9.342;2022-12-10T11:09:54;1.30;99.90
21744;DHT22;11034;48.556;9.342;2022-12-10T11:12:34;1.20;99.90
21744;DHT22;11034;48.556;9.342;2022-12-10T11:15:29;1.20;99.90
21744;DHT22;11034;48.556;9.342;2022-12-10T11:17:58;1.30;99.90
21744;DHT22;11034;48.556;9.342;2022-12-10T11:20:28;1.30;99.90
21744;DHT22;11034;48.556;9.342;2022-12-10T11:22:57;1.20;99.90
21744;DHT22;11034;48.556;9.342;2022-12-10T11:25:38;1.20;99.90
21744;DHT22;11034;48.556;9.342;2022-12-10T11:28:20;1.30;99.90
21744;DHT22;11034;48.556;9.342;2022-12-10T11:30:58;1.30;99.90
21744;DHT22;11034;48.556;9.342;2022-12-10T11:33:39;1.30;99.90
21744;DHT22;11034;48.556;9.342;2022-12-10T11:36:21;1.30;99.90
21744;DHT22;11034;48.556;9.342;2022-12-10T11:38:57;1.30;99.90
21744;DHT22;11034;48.556;9.342;2022-12-10T11:41:34;1.40;99.90
21744;DHT22;11034;48.556;9.342;2022-12-10T11:44:15;1.40;99.90
21744;DHT22;11034;48.556;9.342;2022-12-10T11:46:58;1.30;99.90
21744;DHT22;11034;48.556;9.342;2022-12-10T11:49:35;1.40;99.90
21744;DHT22;11034;48.556;9.342;2022-12-10T11:52:14;1.30;99.90
21744;DHT22;11034;48.556;9.342;2022-12-10T11:54:58;1.40;99.90
21744;DHT22;11034;48.556;9.342;2022-12-10T11:57:40;1.40;99.90
21744;DHT22;11034;48.556;9.342;2022-12-10T12:00:19;1.50;99.90
21744;DHT22;11034;48.556;9.342;2022-12-10T12:02:58;1.50;99.90
21744;DHT22;11034;48.556;9.342;2022-12-10T12:05:41;1.50;99.90
21744;DHT22;11034;48.556;9.342;2022-12-10T12:08:21;1.60;99.90
21744;DHT22;11034;48.556;9.342;2022-12-10T12:11:08;1.60;99.90
21744;DHT22;11034;48.556;9.342;2022-12-10T12:13:48;1.50;99.90
21744;DHT22;11034;48.556;9.342;2022-12-10T12:16:26;1.50;99.90
21744;DHT22;11034;48.556;9.342;2022-12-10T12:18:58;1.40;99.90
21744;DHT22;11034;48.556;9.342;2022-12-10T12:21:27;1.50;99.90
21744;DHT22;11034;48.556;9.342;2022-12-10T12:23:58;1.50;99.90
21744;DHT22;11034;48.556;9.342;2022-12-10T12:26:34;1.50;99.90
21744;DHT22;11034;48.556;9.342;2022-12-10T12:29:13;1.50;99.90
21744;DHT22;11034;48.556;9.342;2022-12-10T12:31:54;1.50;99.90
21744;DHT22;11034;48.556;9.342;2022-12-10T12:34:26;1.50;99.90
21744;DHT22;11034;48.556;9.342;2022-12-10T12:36:56;1.50;99.90
21744;DHT22;11034;48.556;9.342;2022-12-10T12:39:28;1.50;99.90
21744;DHT22;11034;48.556;9.342;2022-12-10T12:42:04;1.40;99.90
21744;DHT22;11034;48.556;9.342;2022-12-10T12:44:44;1.30;99.90
21744;DHT22;11034;48.556;9.342;2022-12-10T12:47:22;1.40;99.90
21744;DHT22;11034;48.556;9.342;2022-12-10T12:49:55;1.30;99.90
21744;DHT22;11034;48.556;9.342;2022-12-10T12:52:29;1.30;99.90
21744;DHT22;11034;48.556;9.342;2022-12-10T12:55:05;1.30;99.90
21744;DHT22;11034;48.556;9.342;2022-12-10T12:57:41;1.30;99.90
21744;DHT22;11034;48.556;9.342;2022-12-10T13:00:15;1.30;99.90
21744;DHT22;11034;48.556;9.342;2022-12-10T13:02:53;1.20;99.90
21744;DHT22;11034;48.556;9.342;2022-12-10T13:05:27;1.20;99.90
21744;DHT22;11034;48.556;9.342;2022-12-10T13:08:20;1.20;99.90
21744;DHT22;11034;48.556;9.342;2022-12-10T13:10:53;1.10;99.90
21744;DHT22;11034;48.556;9.342;2022-12-10T13:13:28;1.10;99.90
21744;DHT22;11034;48.556;9.342;2022-12-10T13:19:22;1.00;99.90
21744;DHT22;11034;48.556;9.342;2022-12-10T13:22:08;1.00;99.90
21744;DHT22;11034;48.556;9.342;2022-12-10T13:25:10;1.00;99.90
21744;DHT22;11034;48.556;9.342;2022-12-10T13:27:39;1.00;99.90
21744;DHT22;11034;48.556;9.342;2022-12-10T13:30:41;1.00;99.90
21744;DHT22;11034;48.556;9.342;2022-12-10T13:33:16;1.00;99.90
21744;DHT22;11034;48.556;9.342;2022-12-10T13:35:59;1.00;99.90
21744;DHT22;11034;48.556;9.342;2022-12-10T13:38:40;0.90;99.90
21744;DHT22;11034;48.556;9.342;2022-12-10T13:41:08;0.90;99.90
21744;DHT22;11034;48.556;9.342;2022-12-10T13:43:58;0.90;99.90
21744;DHT22;11034;48.556;9.342;2022-12-10T13:46:55;0.90;99.90
21744;DHT22;11034;48.556;9.342;2022-12-10T13:49:26;0.90;99.90
21744;DHT22;11034;48.556;9.342;2022-12-10T13:51:59;0.90;99.90
21744;DHT22;11034;48.556;9.342;2022-12-10T13:54:58;0.90;99.90
21744;DHT22;11034;48.556;9.342;2022-12-10T13:57:56;0.90;99.90
21744;DHT22;11034;48.556;9.342;2022-12-10T14:00:34;0.90;99.90
21744;DHT22;11034;48.556;9.342;2022-12-10T14:03:15;0.90;99.90
21744;DHT22;11034;48.556;9.342;2022-12-10T14:05:55;0.90;99.90
21744;DHT22;11034;48.556;9.342;2022-12-10T14:08:32;0.90;99.90
21744;DHT22;11034;48.556;9.342;2022-12-10T14:11:02;0.80;99.90
21744;DHT22;11034;48.556;9.342;2022-12-10T14:13:33;0.80;99.90
21744;DHT22;11034;48.556;9.342;2022-12-10T14:16:05;0.80;99.90
21744;DHT22;11034;48.556;9.342;2022-12-10T14:18:34;0.80;99.90
21744;DHT22;11034;48.556;9.342;2022-12-10T14:21:05;0.80;99.90
21744;DHT22;11034;48.556;9.342;2022-12-10T14:23:35;0.80;99.90
21744;DHT22;11034;48.556;9.342;2022-12-10T14:26:15;0.80;99.90
21744;DHT22;11034;48.556;9.342;2022-12-10T14:28:45;0.80;99.90
21744;DHT22;11034;48.556;9.342;2022-12-10T14:31:15;0.80;99.90
21744;DHT22;11034;48.556;9.342;2022-12-10T14:33:46;0.70;99.90
21744;DHT22;11034;48.556;9.342;2022-12-10T14:36:25;0.70;99.90
21744;DHT22;11034;48.556;9.342;2022-12-10T14:38:55;0.70;99.90
21744;DHT22;11034;48.556;9.342;2022-12-10T14:41:24;0.70;99.90
21744;DHT22;11034;48.556;9.342;2022-12-10T14:43:54;0.70;99.90
21744;DHT22;11034;48.556;9.342;2022-12-10T14:46:25;0.70;99.90
21744;DHT22;11034;48.556;9.342;2022-12-10T14:48:55;0.60;99.90
21744;DHT22;11034;48.556;9.342;2022-12-10T14:51:25;0.60;99.90
21744;DHT22;11034;48.556;9.342;2022-12-10T14:53:55;0.60;99.90
21744;DHT22;11034;48.556;9.342;2022-12-10T14:56:26;0.50;99.90
21744;DHT22;11034;48.556;9.342;2022-12-10T14:59:01;0.50;99.90
21744;DHT22;11034;48.556;9.342;2022-12-10T15:01:33;0.50;99.90
21744;DHT22;11034;48.556;9.342;2022-12-10T15:04:04;0.50;99.90
21744;DHT22;11034;48.556;9.342;2022-12-10T15:06:34;0.50;99.90
21744;DHT22;11034;48.556;9.342;2022-12-10T15:09:06;0.60;99.90
21744;DHT22;11034;48.556;9.342;2022-12-10T15:11:39;0.50;99.90
21744;DHT22;11034;48.556;9.342;2022-12-10T15:14:15;0.40;99.90
21744;DHT22;11034;48.556;9.342;2022-12-10T15:16:46;0.40;99.90
21744;DHT22;11034;48.556;9.342;2022-12-10T15:19:18;0.30;99.90
21744;DHT22;11034;48.556;9.342;2022-12-10T15:21:49;0.20;99.90
21744;DHT22;11034;48.556;9.342;2022-12-10T15:24:20;0.20;99.90
21744;DHT22;11034;48.556;9.342;2022-12-10T15:26:50;0.20;99.90
21744;DHT22;11034;48.556;9.342;2022-12-10T15:29:31;0.20;99.90
21744;DHT22;11034;48.556;9.342;2022-12-10T15:32:04;0.10;99.90
21744;DHT22;11034;48.556;9.342;2022-12-10T15:34:41;0.10;99.90
21744;DHT22;11034;48.556;9.342;2022-12-10T15:37:21;0.10;99.90
21744;DHT22;11034;48.556;9.342;2022-12-10T15:39:53;0.10;99.90
21744;DHT22;11034;48.556;9.342;2022-12-10T15:42:42;0.00;99.90
21744;DHT22;11034;48.556;9.342;2022-12-10T15:45:17;0.10;99.90
21744;DHT22;11034;48.556;9.342;2022-12-10T15:47:46;0.10;99.90
21744;DHT22;11034;48.556;9.342;2022-12-10T15:50:16;0.00;99.90
21744;DHT22;11034;48.556;9.342;2022-12-10T15:52:44;0.00;99.90
21744;DHT22;11034;48.556;9.342;2022-12-10T15:55:14;-0.10;99.90
21744;DHT22;11034;48.556;9.342;2022-12-10T15:57:42;-0.20;99.90
21744;DHT22;11034;48.556;9.342;2022-12-10T16:00:17;-0.20;99.90
21744;DHT22;11034;48.556;9.342;2022-12-10T16:02:48;-0.20;99.90
21744;DHT22;11034;48.556;9.342;2022-12-10T16:05:19;-0.20;99.90
21744;DHT22;11034;48.556;9.342;2022-12-10T16:07:50;-0.30;99.90
21744;DHT22;11034;48.556;9.342;2022-12-10T16:10:22;-0.30;99.90
21744;DHT22;11034;48.556;9.342;2022-12-10T16:12:57;-0.30;99.90
21744;DHT22;11034;48.556;9.342;2022-12-10T16:15:28;-0.30;99.90
21744;DHT22;11034;48.556;9.342;2022-12-10T16:17:56;-0.30;99.90
21744;DHT22;11034;48.556;9.342;2022-12-10T16:20:26;-0.20;99.90